Other Surface Observations
Issued by NWS Great Falls, MT

Home | Current Version | Previous Version | Text Only | Print | Product List | Glossary On
Versions: 1 2 3 4 5 6 7 8 9 10 11 12 13 14 15 16 17 18 19 20 21 22 23 24 25 26 27 28 29 30 31 32 33 34 35 36 37 38 39 40 41 42 43 44 45 46 47 48 49 50
268
SXUS55 KTFX 162329
OSOTFX
AREA AWOS OBSERVATIONS
NATIONAL WEATHER SERVICE GREAT FALLS MT
0429 PM MST MON JAN 16 2017

METAR KPWD 162330Z AUTO 11004KT 6SM M09/M12 A3004 RMK PLENTYWOOD
METAR KPO1 162330Z AUTO 25004KT 10SM M10/M13 A3011 RMK POPLAR
METAR K1S3 162330Z AUTO 00000KT 10SM M08/M14 A3011 RMK FORSYTH
METAR KS71 162330Z AUTO 09006KT 10SM M08/M12 A3001 RMK CHINOOK
METAR K79S 162330Z AUTO 10SM M06/M11 A3001 RMK FORT BENTON
METAR K38S 162330Z AUTO 00000KT 10SM M07/M14 A3022 RMK DEER LODGE
METAR K3U3 162330Z AUTO 00000KT 10SM M04/M15 A3017 RMK ANACONDA
METAR K6S5 162330Z AUTO 00000KT 9SM M11/M16 A3026 RMK HAMILTON
METAR K88M 162330Z AUTO 00000KT 10SM M11/M16 A3029 RMK EUREKA



USA.gov is the U.S. government's official web portal to all federal, state and local government web resources and services.